Time;durP1;ratioP1;P1;durP2;ratioP2;P2;SDS_P1;SDS_P2;PMS_P1;PMS_P2;Temp;Humidity;BMP_temperature;BMP_pressure;BME280_temperature;BME280_humidity;BME280_pressure;Samples;Min_cycle;Max_cycle;Signal;HPM_P1;HPM_P2
2023/06/22 00:01:10;;;;;;;6.95;2.97;;;;;;;;;;5061702;28;20065;-69
2023/06/22 00:03:35;;;;;;;7.95;4.47;;;;;;;;;;5045325;28;20105;-68
2023/06/22 00:06:00;;;;;;;9.15;4.10;;;;;;;;;;5043346;28;20041;-68
2023/06/22 00:08:26;;;;;;;7.80;3.60;;;;;;;;;;5046048;28;20470;-68
2023/06/22 00:10:51;;;;;;;12.98;4.00;;;;;;;;;;5042408;28;20095;-68
2023/06/22 00:13:17;;;;;;;11.23;3.08;;;;;;;;;;5045888;28;20033;-67
2023/06/22 00:15:43;;;;;;;8.25;3.60;;;;;;;;;;5062384;28;20505;-67
2023/06/22 00:18:11;;;;;;;11.70;4.05;;;;;;;;;;5051309;28;20515;-68
2023/06/22 00:20:37;;;;;;;11.85;3.50;;;;;;;;;;5058341;28;20037;-67
2023/06/22 00:23:08;;;;;;;18.30;4.00;;;;;;;;;;5044822;28;20486;-67
2023/06/22 00:25:39;;;;;;;12.27;3.17;;;;;;;;;;5059185;28;20048;-68
2023/06/22 00:28:06;;;;;;;12.77;4.03;;;;;;;;;;5039838;28;20025;-68
2023/06/22 00:30:32;;;;;;;9.15;3.58;;;;;;;;;;5061630;28;20032;-67
2023/06/22 00:32:58;;;;;;;17.15;4.35;;;;;;;;;;5059764;28;20630;-68
2023/06/22 00:35:28;;;;;;;13.07;3.30;;;;;;;;;;5055592;28;20041;-68
2023/06/22 00:38:00;;;;;;;13.05;3.80;;;;;;;;;;5057767;28;20025;-69
2023/06/22 00:40:27;;;;;;;8.68;3.53;;;;;;;;;;5057555;28;20033;-68
2023/06/22 00:42:53;;;;;;;14.48;3.78;;;;;;;;;;5058368;28;20039;-68
2023/06/22 00:45:19;;;;;;;7.50;3.13;;;;;;;;;;5049508;28;20040;-68
2023/06/22 00:47:44;;;;;;;9.75;3.38;;;;;;;;;;5039592;28;20025;-68
2023/06/22 00:50:18;;;;;;;7.25;3.20;;;;;;;;;;5057231;28;20120;-68
2023/06/22 00:52:44;;;;;;;7.93;3.50;;;;;;;;;;5046852;28;20029;-68
2023/06/22 00:55:09;;;;;;;7.60;3.17;;;;;;;;;;5049436;28;20053;-68
2023/06/22 00:57:37;;;;;;;13.73;3.60;;;;;;;;;;5051307;28;20021;-68
2023/06/22 01:00:06;;;;;;;11.65;3.80;;;;;;;;;;5046779;28;20673;-68
2023/06/22 01:02:32;;;;;;;13.63;3.70;;;;;;;;;;5051710;28;20136;-68
2023/06/22 01:04:57;;;;;;;16.80;3.67;;;;;;;;;;5056386;28;20040;-68
2023/06/22 01:07:39;;;;;;;14.50;3.50;;;;;;;;;;5043697;28;20033;-68
2023/06/22 01:10:14;;;;;;;7.72;3.50;;;;;;;;;;5045131;28;20458;-68
2023/06/22 01:12:44;;;;;;;14.05;3.72;;;;;;;;;;5053670;28;20024;-68
2023/06/22 01:15:32;;;;;;;7.07;3.75;;;;;;;;;;5039928;28;20037;-68
2023/06/22 01:17:59;;;;;;;14.00;3.47;;;;;;;;;;5032117;28;20044;-68
2023/06/22 01:20:27;;;;;;;9.07;3.85;;;;;;;;;;5056187;28;20445;-68
2023/06/22 01:23:25;;;;;;;20.98;4.28;;;;;;;;;;5039871;28;20021;-68
2023/06/22 01:25:51;;;;;;;10.98;3.67;;;;;;;;;;5050967;28;20103;-68
2023/06/22 01:28:37;;;;;;;10.93;3.25;;;;;;;;;;5027161;28;20037;-68
2023/06/22 01:31:05;;;;;;;11.77;3.30;;;;;;;;;;5053549;28;20053;-67
2023/06/22 01:33:36;;;;;;;8.98;3.55;;;;;;;;;;5040714;28;20047;-68
2023/06/22 01:36:03;;;;;;;12.50;3.83;;;;;;;;;;5042013;28;20090;-67
2023/06/22 01:38:29;;;;;;;8.27;3.92;;;;;;;;;;5055848;28;20079;-67
2023/06/22 01:40:57;;;;;;;10.27;3.45;;;;;;;;;;5054672;28;20060;-68
2023/06/22 01:43:25;;;;;;;9.95;3.72;;;;;;;;;;5040120;28;20037;-70
2023/06/22 01:45:51;;;;;;;11.13;4.05;;;;;;;;;;5028427;28;20038;-68
2023/06/22 01:48:17;;;;;;;9.00;3.92;;;;;;;;;;5049878;28;20024;-68
2023/06/22 01:50:43;;;;;;;11.57;3.78;;;;;;;;;;5036002;28;20120;-68
2023/06/22 01:53:09;;;;;;;13.93;3.90;;;;;;;;;;5043207;28;20064;-68
2023/06/22 01:55:34;;;;;;;9.27;3.95;;;;;;;;;;5017394;28;20033;-68
2023/06/22 01:58:00;;;;;;;16.30;3.80;;;;;;;;;;5050902;28;20518;-68
2023/06/22 02:00:31;;;;;;;13.40;3.60;;;;;;;;;;5037036;28;20124;-68
2023/06/22 02:03:02;;;;;;;17.75;4.43;;;;;;;;;;5055495;28;20035;-67
2023/06/22 02:05:34;;;;;;;9.15;3.75;;;;;;;;;;5026736;28;20029;-68
2023/06/22 02:08:09;;;;;;;12.77;4.35;;;;;;;;;;5043199;28;20022;-68
2023/06/22 02:10:37;;;;;;;12.80;4.72;;;;;;;;;;5037766;28;20118;-68
2023/06/22 02:13:06;;;;;;;13.95;4.75;;;;;;;;;;5050138;28;20025;-69
2023/06/22 02:15:31;;;;;;;10.68;4.10;;;;;;;;;;5055043;28;20049;-68
2023/06/22 02:17:57;;;;;;;13.48;3.53;;;;;;;;;;5055656;28;20032;-68
2023/06/22 02:20:24;;;;;;;9.48;4.30;;;;;;;;;;5052342;28;20041;-68
2023/06/22 02:22:49;;;;;;;11.80;4.38;;;;;;;;;;5026983;28;20057;-68
2023/06/22 02:25:15;;;;;;;12.65;4.43;;;;;;;;;;5050495;28;20499;-68
2023/06/22 02:27:40;;;;;;;12.75;4.03;;;;;;;;;;5050300;28;20072;-67
2023/06/22 02:30:09;;;;;;;14.80;4.75;;;;;;;;;;5016969;28;20055;-68
2023/06/22 02:32:35;;;;;;;12.07;4.95;;;;;;;;;;5057069;28;20029;-69
2023/06/22 02:35:03;;;;;;;13.82;4.57;;;;;;;;;;5032624;28;20064;-68
2023/06/22 02:37:29;;;;;;;12.30;4.47;;;;;;;;;;5052912;28;20462;-68
2023/06/22 02:39:55;;;;;;;13.63;4.50;;;;;;;;;;5033086;28;20098;-68
2023/06/22 02:42:21;;;;;;;16.10;4.40;;;;;;;;;;5024425;28;20033;-68
2023/06/22 02:44:47;;;;;;;18.92;4.72;;;;;;;;;;5052657;28;20037;-66
2023/06/22 02:47:12;;;;;;;16.38;4.88;;;;;;;;;;5055173;28;20020;-68
2023/06/22 02:49:38;;;;;;;26.30;5.18;;;;;;;;;;5031237;28;20078;-68
2023/06/22 02:52:03;;;;;;;17.02;5.15;;;;;;;;;;5050558;28;20048;-68
2023/06/22 02:54:29;;;;;;;15.70;4.50;;;;;;;;;;5053276;28;20556;-68
2023/06/22 02:56:54;;;;;;;22.35;5.82;;;;;;;;;;5018065;28;20029;-68
2023/06/22 02:59:23;;;;;;;15.38;5.60;;;;;;;;;;5018908;28;21326;-69
2023/06/22 03:01:49;;;;;;;23.95;5.47;;;;;;;;;;5027845;28;20042;-68
2023/06/22 03:04:15;;;;;;;13.38;4.95;;;;;;;;;;5044395;28;20075;-67
2023/06/22 03:06:41;;;;;;;13.32;5.25;;;;;;;;;;5033491;28;20033;-68
2023/06/22 03:09:07;;;;;;;20.40;5.70;;;;;;;;;;5038429;28;20025;-69
2023/06/22 03:11:33;;;;;;;19.02;5.70;;;;;;;;;;5056689;28;20041;-68
2023/06/22 03:14:02;;;;;;;16.92;5.57;;;;;;;;;;5037722;28;20033;-69
2023/06/22 03:16:27;;;;;;;13.68;5.90;;;;;;;;;;5027874;28;20057;-68
2023/06/22 03:18:53;;;;;;;20.40;5.60;;;;;;;;;;5050117;28;20040;-68
2023/06/22 03:21:19;;;;;;;13.20;5.65;;;;;;;;;;5048640;28;20048;-69
2023/06/22 03:23:45;;;;;;;14.50;5.10;;;;;;;;;;5048008;28;20013;-68
2023/06/22 03:26:10;;;;;;;14.57;4.88;;;;;;;;;;5051404;28;20051;-69
2023/06/22 03:28:37;;;;;;;15.35;5.05;;;;;;;;;;5021653;28;20023;-68
2023/06/22 03:31:04;;;;;;;16.08;5.00;;;;;;;;;;5031120;28;20445;-68
2023/06/22 03:33:29;;;;;;;18.65;4.60;;;;;;;;;;5055538;28;20073;-69
2023/06/22 03:35:55;;;;;;;16.95;4.43;;;;;;;;;;5037791;28;20037;-68
2023/06/22 03:38:20;;;;;;;9.43;3.95;;;;;;;;;;5028061;28;20531;-68
2023/06/22 03:40:46;;;;;;;15.77;4.38;;;;;;;;;;5031997;28;20112;-68
2023/06/22 03:43:11;;;;;;;13.32;3.83;;;;;;;;;;5039333;28;20156;-68
2023/06/22 03:45:37;;;;;;;11.32;3.95;;;;;;;;;;5043152;28;20112;-68
2023/06/22 03:48:02;;;;;;;12.90;3.83;;;;;;;;;;5021599;28;20047;-69
2023/06/22 03:50:28;;;;;;;15.77;3.90;;;;;;;;;;5044713;28;20482;-69
2023/06/22 03:52:53;;;;;;;11.82;3.65;;;;;;;;;;5034598;28;20048;-68
2023/06/22 03:55:22;;;;;;;10.68;3.83;;;;;;;;;;5037811;28;20037;-69
2023/06/22 03:57:47;;;;;;;9.50;3.63;;;;;;;;;;5036204;28;20060;-69
2023/06/22 04:00:15;;;;;;;13.02;3.55;;;;;;;;;;5052767;28;20065;-68
2023/06/22 04:02:41;;;;;;;10.82;3.97;;;;;;;;;;5054765;28;20045;-69
2023/06/22 04:05:08;;;;;;;12.90;3.28;;;;;;;;;;5040165;28;20054;-69
2023/06/22 04:07:33;;;;;;;16.50;3.90;;;;;;;;;;5027478;28;20032;-69
2023/06/22 04:09:59;;;;;;;15.23;3.60;;;;;;;;;;5033056;28;20097;-69
2023/06/22 04:12:24;;;;;;;16.00;3.63;;;;;;;;;;5035447;28;20029;-69
2023/06/22 04:14:50;;;;;;;10.02;3.40;;;;;;;;;;5054639;28;20029;-68
2023/06/22 04:17:15;;;;;;;9.50;3.97;;;;;;;;;;5013751;28;20053;-69
2023/06/22 04:19:41;;;;;;;15.25;3.70;;;;;;;;;;5008274;28;20081;-69
2023/06/22 04:22:07;;;;;;;15.20;4.53;;;;;;;;;;5010311;28;20459;-69
2023/06/22 04:24:33;;;;;;;13.75;3.65;;;;;;;;;;5014817;28;20022;-69
2023/06/22 04:27:02;;;;;;;15.05;3.85;;;;;;;;;;5016195;28;20065;-69
2023/06/22 04:29:29;;;;;;;9.38;3.53;;;;;;;;;;5011558;28;20462;-67
2023/06/22 04:31:58;;;;;;;8.23;3.30;;;;;;;;;;5011752;28;20050;-69
2023/06/22 04:34:26;;;;;;;12.77;3.35;;;;;;;;;;5015613;28;20029;-68
2023/06/22 04:36:52;;;;;;;12.80;4.22;;;;;;;;;;5013888;28;20038;-68
2023/06/22 04:39:18;;;;;;;11.25;3.42;;;;;;;;;;5014212;28;20033;-68
2023/06/22 04:41:44;;;;;;;13.38;3.90;;;;;;;;;;5015320;28;20073;-68
2023/06/22 04:44:26;;;;;;;12.43;3.47;;;;;;;;;;5017791;28;20044;-68
2023/06/22 04:47:01;;;;;;;10.30;3.10;;;;;;;;;;5025493;28;20083;-68
2023/06/22 04:49:36;;;;;;;10.65;3.63;;;;;;;;;;5011264;28;20080;-68
2023/06/22 04:52:04;;;;;;;9.60;3.38;;;;;;;;;;5011747;28;20041;-68
2023/06/22 04:54:29;;;;;;;13.98;4.53;;;;;;;;;;5018084;28;20030;-68
2023/06/22 04:56:57;;;;;;;10.82;3.72;;;;;;;;;;5024013;28;20511;-68
2023/06/22 04:59:29;;;;;;;15.25;3.55;;;;;;;;;;5011746;28;20038;-69
2023/06/22 05:01:55;;;;;;;22.33;4.07;;;;;;;;;;5015656;28;20410;-68
2023/06/22 05:04:25;;;;;;;18.38;3.72;;;;;;;;;;5000364;28;20084;-67
2023/06/22 05:06:51;;;;;;;14.63;3.83;;;;;;;;;;5032285;28;20402;-68
2023/06/22 05:09:17;;;;;;;17.20;3.97;;;;;;;;;;5014727;28;20060;-67
2023/06/22 05:11:44;;;;;;;14.27;3.67;;;;;;;;;;5014512;28;20045;-68
2023/06/22 05:14:09;;;;;;;10.82;3.00;;;;;;;;;;5014574;28;20022;-67
2023/06/22 05:16:36;;;;;;;12.82;3.55;;;;;;;;;;5023079;28;20054;-67
2023/06/22 05:19:03;;;;;;;14.05;3.63;;;;;;;;;;5030130;28;20065;-66
2023/06/22 05:21:29;;;;;;;17.38;4.18;;;;;;;;;;5007802;28;20046;-67
2023/06/22 05:23:59;;;;;;;15.30;4.05;;;;;;;;;;5013827;28;20076;-67
2023/06/22 05:26:25;;;;;;;12.73;3.78;;;;;;;;;;5015324;28;20045;-67
2023/06/22 05:28:51;;;;;;;10.98;3.30;;;;;;;;;;5015180;28;20490;-68
2023/06/22 05:31:17;;;;;;;10.60;3.70;;;;;;;;;;5010758;28;20582;-67
2023/06/22 05:33:43;;;;;;;5.10;3.05;;;;;;;;;;5015633;28;20471;-67
2023/06/22 05:36:09;;;;;;;11.52;3.28;;;;;;;;;;5013305;28;20522;-68
2023/06/22 05:38:35;;;;;;;11.50;3.33;;;;;;;;;;5008615;28;20037;-67
2023/06/22 05:41:01;;;;;;;16.10;3.90;;;;;;;;;;5007812;28;20053;-67
2023/06/22 05:43:26;;;;;;;13.90;3.63;;;;;;;;;;5013378;28;20044;-68
2023/06/22 05:45:52;;;;;;;8.63;3.63;;;;;;;;;;5013604;28;20388;-67
2023/06/22 05:48:17;;;;;;;9.50;3.00;;;;;;;;;;5016164;28;20060;-67
2023/06/22 05:50:43;;;;;;;7.32;3.45;;;;;;;;;;5002159;28;20034;-67
2023/06/22 05:53:08;;;;;;;9.50;3.47;;;;;;;;;;5015894;28;20780;-68
2023/06/22 05:55:34;;;;;;;14.38;3.25;;;;;;;;;;5013848;28;20112;-68
2023/06/22 05:57:59;;;;;;;7.45;2.97;;;;;;;;;;5015721;28;20037;-67
2023/06/22 06:00:25;;;;;;;14.25;4.13;;;;;;;;;;5010095;28;20073;-67
2023/06/22 06:02:50;;;;;;;11.55;3.78;;;;;;;;;;5008422;28;20042;-67
2023/06/22 06:05:16;;;;;;;7.45;3.33;;;;;;;;;;5012290;28;20038;-67
2023/06/22 06:07:45;;;;;;;7.50;2.97;;;;;;;;;;5014946;28;20029;-67
2023/06/22 06:10:11;;;;;;;10.30;3.92;;;;;;;;;;5013552;28;20495;-66
2023/06/22 06:12:37;;;;;;;8.10;3.97;;;;;;;;;;5011626;28;20102;-66
2023/06/22 06:15:03;;;;;;;15.07;3.65;;;;;;;;;;5013205;28;20022;-67
2023/06/22 06:17:29;;;;;;;14.23;4.90;;;;;;;;;;5052867;28;20104;-66
2023/06/22 06:19:54;;;;;;;11.98;3.80;;;;;;;;;;5051288;28;20112;-66
2023/06/22 06:22:20;;;;;;;12.40;3.47;;;;;;;;;;5038879;28;20021;-68
2023/06/22 06:24:48;;;;;;;21.48;4.18;;;;;;;;;;5055445;28;20439;-47
2023/06/22 06:27:13;;;;;;;10.40;3.90;;;;;;;;;;5015893;28;20029;-66
2023/06/22 06:29:39;;;;;;;15.70;3.72;;;;;;;;;;5049856;28;20131;-66
2023/06/22 06:32:05;;;;;;;13.02;3.72;;;;;;;;;;5045197;28;20029;-66
2023/06/22 06:34:30;;;;;;;13.80;3.90;;;;;;;;;;5028447;28;20033;-66
2023/06/22 06:36:55;;;;;;;16.67;4.65;;;;;;;;;;5034813;28;20116;-65
2023/06/22 06:39:21;;;;;;;13.35;4.03;;;;;;;;;;5048725;28;20107;-66
2023/06/22 06:41:47;;;;;;;15.25;4.53;;;;;;;;;;5049530;28;20048;-65
2023/06/22 06:44:12;;;;;;;10.05;3.40;;;;;;;;;;5031689;28;22075;-64
2023/06/22 06:46:38;;;;;;;12.02;3.58;;;;;;;;;;5031977;28;20045;-66
2023/06/22 06:49:03;;;;;;;22.92;4.35;;;;;;;;;;5030435;28;20033;-66
2023/06/22 06:51:29;;;;;;;9.68;3.05;;;;;;;;;;5048469;28;20045;-66
2023/06/22 06:53:54;;;;;;;12.63;3.28;;;;;;;;;;5047432;28;20033;-65
2023/06/22 06:56:20;;;;;;;11.85;3.40;;;;;;;;;;5050134;28;20044;-67
2023/06/22 06:58:46;;;;;;;9.55;3.50;;;;;;;;;;5038507;28;20033;-66
2023/06/22 07:01:12;;;;;;;5.80;3.30;;;;;;;;;;5050423;28;20041;-66
2023/06/22 07:03:38;;;;;;;9.07;3.15;;;;;;;;;;5051573;28;20457;-66
2023/06/22 07:06:04;;;;;;;9.27;3.40;;;;;;;;;;5036013;28;20088;-66
2023/06/22 07:08:29;;;;;;;15.43;4.43;;;;;;;;;;5042353;28;20090;-65
2023/06/22 07:10:55;;;;;;;14.23;3.40;;;;;;;;;;5016033;28;20078;-65
2023/06/22 07:13:21;;;;;;;10.23;3.40;;;;;;;;;;5034714;28;20099;-66
2023/06/22 07:15:46;;;;;;;13.27;3.30;;;;;;;;;;5042699;28;20064;-65
2023/06/22 07:18:12;;;;;;;20.98;3.58;;;;;;;;;;5044689;28;20024;-66
2023/06/22 07:20:39;;;;;;;10.95;3.78;;;;;;;;;;5049931;28;20691;-66
2023/06/22 07:23:05;;;;;;;14.60;3.60;;;;;;;;;;5055251;28;20047;-66
2023/06/22 07:25:30;;;;;;;6.88;4.40;;;;;;;;;;5053500;28;20115;-67
2023/06/22 07:28:03;;;;;;;14.32;4.55;;;;;;;;;;5066410;28;20078;-67
2023/06/22 07:30:30;;;;;;;12.02;3.88;;;;;;;;;;5038853;28;20052;-66
2023/06/22 07:32:56;;;;;;;18.67;4.30;;;;;;;;;;5052364;28;20020;-66
2023/06/22 07:35:22;;;;;;;13.18;3.97;;;;;;;;;;5038246;28;20044;-66
2023/06/22 07:37:47;;;;;;;15.15;4.20;;;;;;;;;;5034858;28;20022;-66
2023/06/22 07:40:13;;;;;;;7.82;4.05;;;;;;;;;;5053602;28;20067;-66
2023/06/22 07:42:38;;;;;;;6.47;3.90;;;;;;;;;;5019860;28;20037;-66
2023/06/22 07:45:05;;;;;;;8.63;3.58;;;;;;;;;;5053304;28;20063;-66
2023/06/22 07:47:34;;;;;;;13.45;3.83;;;;;;;;;;5035974;28;20032;-66
2023/06/22 07:50:01;;;;;;;11.05;3.67;;;;;;;;;;5016170;28;20021;-67
2023/06/22 07:52:30;;;;;;;13.75;3.72;;;;;;;;;;5053111;28;20063;-66
2023/06/22 07:54:55;;;;;;;12.50;3.83;;;;;;;;;;5031284;28;20023;-66
2023/06/22 07:57:21;;;;;;;13.85;3.83;;;;;;;;;;5040848;28;20025;-66
2023/06/22 07:59:46;;;;;;;11.43;4.00;;;;;;;;;;5018620;28;20030;-61
2023/06/22 08:02:12;;;;;;;9.32;4.05;;;;;;;;;;5042499;28;20653;-66
2023/06/22 08:04:38;;;;;;;16.83;3.97;;;;;;;;;;5047601;28;20040;-67
2023/06/22 08:07:04;;;;;;;13.30;3.65;;;;;;;;;;5048604;28;20040;-67
2023/06/22 08:09:31;;;;;;;11.40;3.80;;;;;;;;;;5056967;28;20422;-67
2023/06/22 08:11:57;;;;;;;22.40;4.70;;;;;;;;;;5035617;28;20088;-67
2023/06/22 08:14:25;;;;;;;10.70;3.75;;;;;;;;;;5025910;28;20505;-67
2023/06/22 08:16:50;;;;;;;15.35;3.83;;;;;;;;;;5037806;28;20057;-67
2023/06/22 08:19:16;;;;;;;16.73;4.47;;;;;;;;;;5032852;28;20044;-67
2023/06/22 08:21:41;;;;;;;16.23;4.53;;;;;;;;;;5057832;28;20044;-68
2023/06/22 08:24:07;;;;;;;12.60;3.90;;;;;;;;;;5025396;28;20029;-67
2023/06/22 08:26:36;;;;;;;11.27;3.80;;;;;;;;;;5022600;28;20049;-68
2023/06/22 08:29:02;;;;;;;9.15;3.40;;;;;;;;;;5036668;28;20463;-68
2023/06/22 08:31:27;;;;;;;16.83;4.05;;;;;;;;;;5032718;28;20068;-68
2023/06/22 08:33:53;;;;;;;15.27;3.67;;;;;;;;;;5039429;28;20041;-68
2023/06/22 08:36:18;;;;;;;16.13;3.80;;;;;;;;;;5039520;28;20864;-68
2023/06/22 08:38:44;;;;;;;16.67;4.63;;;;;;;;;;5043863;28;20029;-68
2023/06/22 08:41:10;;;;;;;13.13;3.70;;;;;;;;;;5041143;28;20052;-68
2023/06/22 08:43:35;;;;;;;14.93;3.53;;;;;;;;;;5027230;28;20025;-68
2023/06/22 08:46:02;;;;;;;7.50;3.50;;;;;;;;;;5046182;28;20041;-68
2023/06/22 08:48:29;;;;;;;18.48;4.03;;;;;;;;;;5037554;28;20017;-69
2023/06/22 08:50:54;;;;;;;7.93;3.58;;;;;;;;;;5031902;28;20025;-68
2023/06/22 08:53:20;;;;;;;18.88;3.70;;;;;;;;;;5042648;28;20410;-68
2023/06/22 08:55:45;;;;;;;14.93;3.97;;;;;;;;;;5043655;28;20087;-68
2023/06/22 08:58:11;;;;;;;15.40;3.50;;;;;;;;;;5041111;28;20080;-68
2023/06/22 09:00:37;;;;;;;12.25;3.85;;;;;;;;;;5052930;28;20040;-66
2023/06/22 09:03:02;;;;;;;11.18;3.50;;;;;;;;;;5058930;28;20148;-67
2023/06/22 09:05:28;;;;;;;9.45;3.80;;;;;;;;;;5046427;28;20106;-67
2023/06/22 09:07:58;;;;;;;11.93;3.92;;;;;;;;;;5025070;28;20056;-67
2023/06/22 09:10:24;;;;;;;12.55;3.60;;;;;;;;;;5058034;28;20041;-68
2023/06/22 09:12:49;;;;;;;13.02;3.83;;;;;;;;;;5025794;28;20035;-68
2023/06/22 09:15:15;;;;;;;13.75;4.53;;;;;;;;;;5023047;28;20394;-67
2023/06/22 09:17:41;;;;;;;12.00;4.00;;;;;;;;;;5040304;28;20119;-68
2023/06/22 09:20:09;;;;;;;13.27;3.92;;;;;;;;;;5036496;28;20843;-67
2023/06/22 09:22:35;;;;;;;13.32;4.00;;;;;;;;;;5053978;28;20059;-68
2023/06/22 09:25:00;;;;;;;14.07;4.10;;;;;;;;;;5023108;28;20028;-66
2023/06/22 09:27:25;;;;;;;12.90;4.00;;;;;;;;;;5035837;28;20496;-68
2023/06/22 09:29:51;;;;;;;11.93;3.85;;;;;;;;;;5021601;28;20068;-65
2023/06/22 09:32:16;;;;;;;10.82;3.38;;;;;;;;;;5028538;28;20055;-68
2023/06/22 09:34:42;;;;;;;15.90;3.40;;;;;;;;;;5023517;28;20025;-68
2023/06/22 09:37:07;;;;;;;12.90;3.58;;;;;;;;;;5036515;28;20129;-68
2023/06/22 09:39:32;;;;;;;14.02;3.83;;;;;;;;;;5039551;28;20088;-69
2023/06/22 09:42:00;;;;;;;10.30;3.92;;;;;;;;;;5048268;28;20451;-69
2023/06/22 09:44:25;;;;;;;8.77;3.78;;;;;;;;;;5046918;28;20029;-68
2023/06/22 09:46:51;;;;;;;15.60;3.78;;;;;;;;;;5053561;28;20044;-69
2023/06/22 09:49:16;;;;;;;6.15;4.05;;;;;;;;;;5056560;28;20497;-69
2023/06/22 09:51:42;;;;;;;11.38;3.90;;;;;;;;;;5054698;28;20089;-68
2023/06/22 09:54:07;;;;;;;18.08;4.15;;;;;;;;;;5025711;28;20045;-68
2023/06/22 09:56:32;;;;;;;17.38;3.80;;;;;;;;;;5036633;28;20066;-68
2023/06/22 09:58:58;;;;;;;16.25;3.80;;;;;;;;;;5059587;28;20393;-69
2023/06/22 10:01:24;;;;;;;18.65;3.88;;;;;;;;;;5033754;28;20033;-68
2023/06/22 10:03:50;;;;;;;10.63;4.28;;;;;;;;;;5062499;28;20096;-68
2023/06/22 10:06:15;;;;;;;17.85;4.60;;;;;;;;;;5039042;28;20502;-69
2023/06/22 10:08:41;;;;;;;9.63;3.63;;;;;;;;;;5053275;28;20055;-69
2023/06/22 10:11:06;;;;;;;18.52;4.90;;;;;;;;;;5018863;28;20052;-68
2023/06/22 10:13:32;;;;;;;12.00;4.30;;;;;;;;;;5038167;28;20036;-70
2023/06/22 10:15:57;;;;;;;13.02;5.03;;;;;;;;;;5047760;28;20041;-67
2023/06/22 10:18:23;;;;;;;10.32;4.18;;;;;;;;;;5038844;28;20486;-69
2023/06/22 10:20:52;;;;;;;12.60;4.85;;;;;;;;;;5040484;28;20155;-68
2023/06/22 10:23:20;;;;;;;9.63;4.20;;;;;;;;;;5036475;28;20040;-69
2023/06/22 10:25:46;;;;;;;11.82;4.38;;;;;;;;;;5049566;28;20478;-69
2023/06/22 10:28:12;;;;;;;13.07;5.15;;;;;;;;;;5044190;28;20172;-68
2023/06/22 10:30:41;;;;;;;17.17;5.03;;;;;;;;;;5035431;28;20032;-68
2023/06/22 10:33:06;;;;;;;17.45;4.60;;;;;;;;;;5034347;28;20037;-69
2023/06/22 10:35:32;;;;;;;10.88;4.18;;;;;;;;;;5053823;28;20041;-69
2023/06/22 10:37:57;;;;;;;18.73;4.75;;;;;;;;;;5055859;28;20029;-69
2023/06/22 10:40:23;;;;;;;22.67;5.18;;;;;;;;;;5036509;28;20490;-68
2023/06/22 10:42:50;;;;;;;15.27;4.75;;;;;;;;;;5057127;28;20132;-69
2023/06/22 10:45:15;;;;;;;20.33;4.95;;;;;;;;;;5029375;28;20037;-69
2023/06/22 10:47:42;;;;;;;13.50;4.75;;;;;;;;;;5052007;28;20041;-69
2023/06/22 10:50:07;;;;;;;13.50;4.68;;;;;;;;;;5035088;28;20379;-69
2023/06/22 10:52:33;;;;;;;27.23;5.68;;;;;;;;;;5006940;28;20032;-69
2023/06/22 10:54:58;;;;;;;16.30;5.28;;;;;;;;;;5038571;28;20462;-70
2023/06/22 10:57:24;;;;;;;18.08;5.15;;;;;;;;;;5017365;28;20029;-70
2023/06/22 10:59:49;;;;;;;15.40;4.85;;;;;;;;;;5013250;28;20482;-69
2023/06/22 11:02:15;;;;;;;16.85;5.32;;;;;;;;;;5036769;28;20487;-69
2023/06/22 11:04:40;;;;;;;18.52;4.78;;;;;;;;;;5044024;28;20028;-70
2023/06/22 11:07:06;;;;;;;14.48;4.85;;;;;;;;;;5054334;28;20049;-69
2023/06/22 11:09:31;;;;;;;20.23;5.43;;;;;;;;;;5030658;28;20185;-70
2023/06/22 11:11:58;;;;;;;10.07;4.57;;;;;;;;;;5050852;28;20051;-69
2023/06/22 11:14:24;;;;;;;20.05;4.75;;;;;;;;;;5052635;28;20036;-69
2023/06/22 11:16:50;;;;;;;18.83;5.40;;;;;;;;;;5032803;28;20042;-70
2023/06/22 11:19:15;;;;;;;15.40;5.28;;;;;;;;;;5052342;28;20056;-69
2023/06/22 11:21:41;;;;;;;18.73;4.70;;;;;;;;;;5037861;28;20064;-69
2023/06/22 11:24:06;;;;;;;19.98;5.07;;;;;;;;;;5053054;28;20036;-70
2023/06/22 11:26:33;;;;;;;15.50;4.70;;;;;;;;;;5054486;28;20086;-69
2023/06/22 11:28:58;;;;;;;12.40;4.93;;;;;;;;;;5022234;28;20028;-69
2023/06/22 11:31:24;;;;;;;12.13;4.50;;;;;;;;;;5033338;28;20037;-69
2023/06/22 11:33:49;;;;;;;15.25;5.03;;;;;;;;;;5054716;28;20047;-69
2023/06/22 11:36:15;;;;;;;15.77;4.75;;;;;;;;;;5049719;28;20046;-71
2023/06/22 11:38:42;;;;;;;24.40;5.80;;;;;;;;;;5048132;28;20107;-70
2023/06/22 11:41:07;;;;;;;12.30;4.65;;;;;;;;;;5042805;28;20056;-69
2023/06/22 11:43:33;;;;;;;13.70;4.80;;;;;;;;;;5055700;28;20037;-69
2023/06/22 11:45:59;;;;;;;19.95;5.70;;;;;;;;;;5054204;28;20032;-69
2023/06/22 11:48:24;;;;;;;16.40;4.85;;;;;;;;;;5031118;28;20099;-70
2023/06/22 11:50:50;;;;;;;14.63;5.10;;;;;;;;;;5017168;28;20521;-70
2023/06/22 11:53:17;;;;;;;14.10;4.97;;;;;;;;;;5033479;28;20029;-70
2023/06/22 11:55:43;;;;;;;12.15;4.95;;;;;;;;;;5047056;28;20659;-69
2023/06/22 11:58:08;;;;;;;17.85;5.05;;;;;;;;;;5055514;28;20078;-71
2023/06/22 12:00:34;;;;;;;14.30;5.35;;;;;;;;;;5036601;28;20124;-70
2023/06/22 12:02:59;;;;;;;15.90;5.00;;;;;;;;;;5051282;28;20029;-70
2023/06/22 12:05:25;;;;;;;20.00;5.13;;;;;;;;;;5053858;28;20043;-70
2023/06/22 12:07:52;;;;;;;17.90;5.22;;;;;;;;;;5052911;28;20033;-71
2023/06/22 12:10:18;;;;;;;19.58;5.55;;;;;;;;;;5050190;28;20116;-69
2023/06/22 12:12:44;;;;;;;21.30;5.57;;;;;;;;;;5037972;28;20060;-71
2023/06/22 12:15:10;;;;;;;24.50;6.38;;;;;;;;;;5021145;28;20045;-70
2023/06/22 12:17:35;;;;;;;25.23;6.35;;;;;;;;;;5037904;28;20035;-71
2023/06/22 12:20:02;;;;;;;21.25;5.75;;;;;;;;;;5059613;28;20089;-69
2023/06/22 12:22:27;;;;;;;25.63;6.63;;;;;;;;;;5035252;28;20040;-70
2023/06/22 12:24:53;;;;;;;30.77;5.35;;;;;;;;;;5052569;28;20026;-70
2023/06/22 12:27:18;;;;;;;16.48;5.35;;;;;;;;;;5042186;28;20512;-69
2023/06/22 12:29:47;;;;;;;16.33;5.90;;;;;;;;;;5040616;28;20108;-70
2023/06/22 12:32:13;;;;;;;24.95;5.97;;;;;;;;;;5042086;28;20126;-70
2023/06/22 12:34:39;;;;;;;16.15;5.57;;;;;;;;;;5050055;28;20033;-70
2023/06/22 12:37:05;;;;;;;14.57;5.45;;;;;;;;;;5047991;28;20045;-71
2023/06/22 12:39:31;;;;;;;18.83;6.07;;;;;;;;;;5055700;28;20064;-70
2023/06/22 12:41:57;;;;;;;19.20;5.75;;;;;;;;;;5045430;28;20112;-70
2023/06/22 12:44:22;;;;;;;15.57;6.15;;;;;;;;;;5024390;28;20059;-69
2023/06/22 12:46:48;;;;;;;21.08;6.05;;;;;;;;;;5034952;28;20044;-70
2023/06/22 12:49:13;;;;;;;22.80;6.68;;;;;;;;;;5034947;28;20047;-69
2023/06/22 12:51:43;;;;;;;29.80;6.55;;;;;;;;;;5042619;28;20132;-71
2023/06/22 12:54:09;;;;;;;16.05;5.93;;;;;;;;;;5060041;28;20033;-70
2023/06/22 12:56:35;;;;;;;25.00;6.82;;;;;;;;;;5052446;28;20047;-70
2023/06/22 12:59:03;;;;;;;27.80;6.53;;;;;;;;;;5055199;28;20036;-69
2023/06/22 13:01:30;;;;;;;19.88;5.55;;;;;;;;;;5053062;28;20052;-70
2023/06/22 13:03:56;;;;;;;17.33;5.75;;;;;;;;;;5038265;28;20536;-70
2023/06/22 13:06:21;;;;;;;23.65;5.35;;;;;;;;;;5048558;28;20209;-69
2023/06/22 13:08:47;;;;;;;29.52;5.72;;;;;;;;;;5043231;28;20028;-67
2023/06/22 13:11:12;;;;;;;21.00;5.53;;;;;;;;;;5056225;28;20124;-69
2023/06/22 13:13:39;;;;;;;21.25;6.00;;;;;;;;;;5055177;28;20546;-70
2023/06/22 13:16:05;;;;;;;19.67;5.97;;;;;;;;;;5053495;28;20045;-69
2023/06/22 13:18:30;;;;;;;14.27;5.22;;;;;;;;;;5042385;28;20032;-70
2023/06/22 13:20:57;;;;;;;22.42;5.63;;;;;;;;;;5037601;28;20041;-68
2023/06/22 13:23:23;;;;;;;15.45;5.40;;;;;;;;;;5045918;28;20046;-68
2023/06/22 13:25:49;;;;;;;24.50;6.38;;;;;;;;;;5040099;28;20500;-68
2023/06/22 13:28:15;;;;;;;19.73;5.88;;;;;;;;;;5055629;28;20045;-68
2023/06/22 13:30:42;;;;;;;28.25;6.03;;;;;;;;;;5051488;28;20037;-68
2023/06/22 13:33:08;;;;;;;16.00;5.95;;;;;;;;;;5035726;28;20039;-69
2023/06/22 13:35:35;;;;;;;16.70;5.70;;;;;;;;;;5053738;28;20036;-70
2023/06/22 13:38:00;;;;;;;24.70;6.10;;;;;;;;;;5034986;28;20382;-70
2023/06/22 13:40:26;;;;;;;19.27;6.15;;;;;;;;;;5052254;28;20055;-70
2023/06/22 13:42:51;;;;;;;19.73;6.22;;;;;;;;;;5054363;28;20428;-70
2023/06/22 13:45:18;;;;;;;17.55;5.93;;;;;;;;;;5022825;28;20417;-70
2023/06/22 13:47:44;;;;;;;19.98;5.20;;;;;;;;;;5047281;28;20027;-70
2023/06/22 13:50:10;;;;;;;22.63;6.70;;;;;;;;;;5020238;28;20092;-70
2023/06/22 13:52:36;;;;;;;23.42;6.55;;;;;;;;;;5050689;28;20025;-70
2023/06/22 13:55:02;;;;;;;25.70;5.90;;;;;;;;;;5026388;28;20017;-70
2023/06/22 13:57:27;;;;;;;24.88;6.93;;;;;;;;;;5054866;28;20032;-70
2023/06/22 13:59:53;;;;;;;22.85;5.97;;;;;;;;;;5052952;28;20040;-70
2023/06/22 14:02:18;;;;;;;22.50;5.97;;;;;;;;;;5022855;28;20033;-70
2023/06/22 14:04:43;;;;;;;24.73;6.32;;;;;;;;;;5048415;28;20025;-70
2023/06/22 14:07:09;;;;;;;18.05;5.47;;;;;;;;;;5040119;28;20068;-70
2023/06/22 14:09:34;;;;;;;24.45;6.82;;;;;;;;;;5025409;28;20017;-68
2023/06/22 14:12:05;;;;;;;17.25;5.32;;;;;;;;;;5052092;28;20048;-69
2023/06/22 14:14:31;;;;;;;15.45;5.65;;;;;;;;;;5054220;28;20035;-69
2023/06/22 14:16:57;;;;;;;23.63;5.70;;;;;;;;;;5020543;28;20521;-68
2023/06/22 14:19:22;;;;;;;18.52;5.63;;;;;;;;;;5037862;28;20029;-68
2023/06/22 14:21:48;;;;;;;18.77;6.20;;;;;;;;;;5046489;28;20790;-69
2023/06/22 14:24:13;;;;;;;23.05;5.85;;;;;;;;;;5021195;28;20036;-69
2023/06/22 14:26:38;;;;;;;16.00;5.90;;;;;;;;;;5038506;28;20048;-69